Time,TemperatureF,DewpointF,PressureIn,WindDirection,WindDirectionDegrees,WindSpeedMPH,WindSpeedGustMPH,Humidity,HourlyPrecipIn,Conditions,Clouds,dailyrainin,SoftwareType,DateUTC
2013-01-16 00:02:00,43.0,28.0,26.52,WNW,298,11.0,20.0,56,0.00,,,0.01,,2013-01-16 07:02:00,
2013-01-16 00:12:00,43.0,28.0,26.52,WNW,298,11.0,20.0,56,0.00,,,0.01,,2013-01-16 07:12:00,
2013-01-16 00:22:00,43.0,28.0,26.53,West,269,10.0,16.0,56,0.00,,,0.01,,2013-01-16 07:22:00,
2013-01-16 00:32:00,43.0,28.0,26.53,NW,313,8.0,16.0,56,0.00,,,0.01,,2013-01-16 07:32:00,
2013-01-16 00:42:00,43.0,28.0,26.53,NW,313,8.0,16.0,56,0.00,,,0.01,,2013-01-16 07:42:00,
2013-01-16 00:52:00,43.0,28.0,26.53,West,272,6.0,13.0,56,0.00,,,0.01,,2013-01-16 07:52:00,
2013-01-16 01:02:00,43.0,28.0,26.53,NW,315,7.0,14.0,56,0.00,,,0.01,,2013-01-16 08:02:00,
2013-01-16 01:12:00,43.0,28.0,26.53,NW,315,7.0,14.0,56,0.00,,,0.01,,2013-01-16 08:12:00,
2013-01-16 01:22:00,44.0,29.0,26.53,NW,311,8.0,18.0,56,0.00,,,0.01,,2013-01-16 08:22:00,
2013-01-16 01:32:00,43.0,28.0,26.53,NW,317,4.0,13.0,56,0.00,,,0.01,,2013-01-16 08:32:00,
2013-01-16 01:42:00,43.0,28.0,26.53,NW,317,4.0,13.0,56,0.00,,,0.01,,2013-01-16 08:42:00,
2013-01-16 01:53:00,42.0,28.0,26.53,NNW,331,3.0,8.0,57,0.00,,,0.01,,2013-01-16 08:53:00,
2013-01-16 02:02:00,42.0,28.0,26.53,West,277,6.0,11.0,58,0.00,,,0.01,,2013-01-16 09:02:00,
2013-01-16 02:12:00,42.0,28.0,26.53,West,277,6.0,11.0,58,0.00,,,0.01,,2013-01-16 09:12:00,
2013-01-16 02:22:00,42.0,28.0,26.54,NW,304,5.0,10.0,58,0.00,,,0.01,,2013-01-16 09:22:00,
2013-01-16 02:32:00,43.0,28.0,26.55,NW,325,4.0,12.0,54,0.00,,,0.01,,2013-01-16 09:32:00,
2013-01-16 02:42:00,43.0,28.0,26.55,NW,325,4.0,12.0,54,0.00,,,0.01,,2013-01-16 09:42:00,
2013-01-16 02:53:00,43.0,26.0,26.56,NW,315,8.0,14.0,50,0.00,,,0.01,,2013-01-16 09:53:00,
2013-01-16 03:02:00,43.0,26.0,26.56,WNW,298,2.0,12.0,51,0.00,,,0.01,,2013-01-16 10:02:00,
2013-01-16 03:12:00,43.0,26.0,26.56,WNW,298,2.0,12.0,51,0.00,,,0.01,,2013-01-16 10:12:00,
2013-01-16 03:22:00,43.0,25.0,26.55,WNW,285,7.0,12.0,49,0.00,,,0.01,,2013-01-16 10:22:00,
2013-01-16 03:32:00,42.0,25.0,26.55,NW,310,8.0,14.0,50,0.00,,,0.01,,2013-01-16 10:32:00,
2013-01-16 03:42:00,42.0,25.0,26.55,NW,310,8.0,14.0,50,0.00,,,0.01,,2013-01-16 10:42:00,
2013-01-16 03:53:00,41.0,24.0,26.55,WNW,295,4.0,8.0,50,0.00,,,0.01,,2013-01-16 10:53:00,
2013-01-16 04:02:00,41.0,24.0,26.55,WNW,295,3.0,6.0,50,0.00,,,0.01,,2013-01-16 11:02:00,
2013-01-16 04:12:00,41.0,24.0,26.55,WNW,295,3.0,6.0,50,0.00,,,0.01,,2013-01-16 11:12:00,
2013-01-16 04:22:00,42.0,23.0,26.55,WNW,291,4.0,8.0,46,0.00,,,0.01,,2013-01-16 11:22:00,
2013-01-16 04:32:00,42.0,22.0,26.53,West,268,4.0,7.0,45,0.00,,,0.01,,2013-01-16 11:32:00,
2013-01-16 04:42:00,42.0,22.0,26.53,West,268,4.0,7.0,45,0.00,,,0.01,,2013-01-16 11:42:00,
2013-01-16 04:53:00,43.0,22.0,26.53,WNW,283,2.0,8.0,43,0.00,,,0.01,,2013-01-16 11:53:00,
2013-01-16 05:03:00,43.0,22.0,26.54,West,263,1.0,9.0,42,0.00,,,0.01,,2013-01-16 12:03:00,
2013-01-16 05:13:00,43.0,22.0,26.54,West,263,1.0,9.0,42,0.00,,,0.01,,2013-01-16 12:13:00,
2013-01-16 05:22:00,43.0,22.0,26.54,West,277,2.0,5.0,43,0.00,,,0.01,,2013-01-16 12:22:00,
2013-01-16 05:33:00,43.0,22.0,26.54,West,278,2.0,6.0,43,0.00,,,0.01,,2013-01-16 12:33:00,
2013-01-16 05:43:00,43.0,22.0,26.54,West,278,2.0,6.0,43,0.00,,,0.01,,2013-01-16 12:43:00,
2013-01-16 05:53:00,42.0,22.0,26.55,West,279,4.0,8.0,44,0.00,,,0.01,,2013-01-16 12:53:00,
2013-01-16 06:03:00,43.0,22.0,26.54,WNW,283,5.0,10.0,43,0.00,,,0.01,,2013-01-16 13:03:00,
2013-01-16 06:12:00,43.0,22.0,26.54,WNW,283,5.0,10.0,43,0.00,,,0.01,,2013-01-16 13:12:00,
2013-01-16 06:22:00,43.0,22.0,26.56,NW,304,2.0,10.0,42,0.00,,,0.01,,2013-01-16 13:22:00,
2013-01-16 06:33:00,44.0,22.0,26.56,West,276,5.0,11.0,42,0.00,,,0.01,,2013-01-16 13:33:00,
2013-01-16 06:43:00,44.0,22.0,26.56,West,276,5.0,11.0,42,0.00,,,0.01,,2013-01-16 13:43:00,
2013-01-16 06:53:00,44.0,22.0,26.56,NNW,338,2.0,12.0,41,0.00,,,0.01,,2013-01-16 13:53:00,
2013-01-16 07:03:00,44.0,22.0,26.57,North,355,9.0,20.0,41,0.00,,,0.01,,2013-01-16 14:03:00,
2013-01-16 07:12:00,44.0,22.0,26.57,North,355,9.0,20.0,41,0.00,,,0.01,,2013-01-16 14:12:00,
2013-01-16 07:23:00,44.0,21.0,26.57,WNW,284,7.0,19.0,40,0.00,,,0.01,,2013-01-16 14:23:00,
2013-01-16 07:32:00,44.0,21.0,26.57,NNW,336,6.0,16.0,40,0.00,,,0.01,,2013-01-16 14:32:00,
2013-01-16 07:42:00,44.0,21.0,26.57,NNW,336,6.0,16.0,40,0.00,,,0.01,,2013-01-16 14:42:00,
2013-01-16 07:53:00,44.0,21.0,26.57,WNW,285,12.0,19.0,40,0.00,,,0.01,,2013-01-16 14:53:00,
2013-01-16 08:03:00,44.0,21.0,26.58,WSW,250,5.0,13.0,40,0.00,,,0.01,,2013-01-16 15:03:00,
2013-01-16 08:12:00,44.0,21.0,26.58,WSW,250,5.0,13.0,40,0.00,,,0.01,,2013-01-16 15:12:00,
2013-01-16 08:23:00,44.0,21.0,26.59,NW,319,6.0,12.0,40,0.00,,,0.01,,2013-01-16 15:23:00,
2013-01-16 08:33:00,44.0,21.0,26.59,WNW,298,8.0,13.0,39,0.00,,,0.01,,2013-01-16 15:33:00,
2013-01-16 08:43:00,44.0,21.0,26.59,WNW,298,8.0,13.0,39,0.00,,,0.01,,2013-01-16 15:43:00,
2013-01-16 08:53:00,44.0,21.0,26.60,WNW,300,8.0,14.0,39,0.00,,,0.01,,2013-01-16 15:53:00,
2013-01-16 09:03:00,45.0,21.0,26.60,WNW,302,9.0,15.0,38,0.00,,,0.01,,2013-01-16 16:03:00,
2013-01-16 09:12:00,45.0,21.0,26.60,WNW,302,9.0,15.0,38,0.00,,,0.01,,2013-01-16 16:12:00,
2013-01-16 09:22:00,45.0,21.0,26.61,WNW,286,4.0,10.0,38,0.00,,,0.01,,2013-01-16 16:22:00,
2013-01-16 09:33:00,47.0,21.0,26.62,NW,306,7.0,12.0,35,0.00,,,0.01,,2013-01-16 16:33:00,
2013-01-16 09:42:00,47.0,21.0,26.62,NW,306,7.0,12.0,35,0.00,,,0.01,,2013-01-16 16:42:00,
2013-01-16 09:53:00,47.0,20.0,26.63,NW,313,9.0,18.0,34,0.00,,,0.01,,2013-01-16 16:53:00,
2013-01-16 10:03:00,47.0,21.0,26.63,North,355,7.0,19.0,35,0.00,,,0.01,,2013-01-16 17:03:00,
2013-01-16 10:12:00,47.0,21.0,26.63,North,355,7.0,19.0,35,0.00,,,0.01,,2013-01-16 17:12:00,
2013-01-16 10:22:00,48.0,20.0,26.63,NW,322,9.0,16.0,33,0.00,,,0.01,,2013-01-16 17:22:00,
2013-01-16 10:33:00,49.0,22.0,26.64,NW,310,9.0,16.0,34,0.00,,,0.01,,2013-01-16 17:33:00,
2013-01-16 10:43:00,49.0,22.0,26.64,NW,310,9.0,16.0,34,0.00,,,0.01,,2013-01-16 17:43:00,
2013-01-16 10:53:00,48.0,21.0,26.64,NNW,344,14.0,22.0,34,0.00,,,0.01,,2013-01-16 17:53:00,
2013-01-16 11:02:00,48.0,20.0,26.64,North,355,13.0,23.0,33,0.00,,,0.01,,2013-01-16 18:02:00,
2013-01-16 11:13:00,48.0,20.0,26.64,North,355,13.0,23.0,33,0.00,,,0.01,,2013-01-16 18:13:00,
2013-01-16 11:23:00,48.0,20.0,26.64,North,355,13.0,23.0,33,0.00,,,0.01,,2013-01-16 18:23:00,
2013-01-16 11:33:00,49.0,21.0,26.65,WNW,294,14.0,22.0,33,0.00,,,0.01,,2013-01-16 18:33:00,
2013-01-16 11:42:00,49.0,21.0,26.65,WNW,294,14.0,22.0,33,0.00,,,0.01,,2013-01-16 18:42:00,
2013-01-16 11:53:00,48.0,20.0,26.65,WNW,292,16.0,24.0,33,0.00,,,0.01,,2013-01-16 18:53:00,
2013-01-16 12:03:00,48.0,21.0,26.65,NNE,12,13.0,24.0,34,0.00,,,0.01,,2013-01-16 19:03:00,
2013-01-16 12:12:00,48.0,21.0,26.65,NNE,12,13.0,24.0,34,0.00,,,0.01,,2013-01-16 19:12:00,
2013-01-16 12:23:00,49.0,22.0,26.66,NW,313,15.0,27.0,34,0.00,,,0.01,,2013-01-16 19:23:00,
2013-01-16 12:33:00,49.0,21.0,26.66,North,349,15.0,24.0,33,0.00,,,0.01,,2013-01-16 19:33:00,
2013-01-16 12:43:00,49.0,21.0,26.66,North,349,15.0,24.0,33,0.00,,,0.01,,2013-01-16 19:43:00,
2013-01-16 12:53:00,49.0,21.0,26.66,NNW,331,14.0,23.0,33,0.00,,,0.01,,2013-01-16 19:53:00,
2013-01-16 13:03:00,49.0,22.0,26.65,NW,317,13.0,20.0,34,0.00,,,0.01,,2013-01-16 20:03:00,
2013-01-16 13:12:00,49.0,22.0,26.65,NW,317,13.0,20.0,34,0.00,,,0.01,,2013-01-16 20:12:00,
2013-01-16 13:23:00,49.0,22.0,26.65,North,349,11.0,24.0,34,0.00,,,0.01,,2013-01-16 20:23:00,
2013-01-16 13:33:00,49.0,22.0,26.66,NW,309,13.0,21.0,34,0.00,,,0.01,,2013-01-16 20:33:00,
2013-01-16 13:42:00,49.0,22.0,26.66,NW,309,13.0,21.0,34,0.00,,,0.01,,2013-01-16 20:42:00,
2013-01-16 13:53:00,50.0,23.0,26.67,North,355,10.0,24.0,34,0.00,,,0.01,,2013-01-16 20:53:00,
2013-01-16 14:02:00,50.0,23.0,26.67,North,360,10.0,15.0,35,0.00,,,0.01,,2013-01-16 21:02:00,
2013-01-16 14:12:00,50.0,23.0,26.67,North,360,10.0,15.0,35,0.00,,,0.01,,2013-01-16 21:12:00,
2013-01-16 14:22:00,48.0,22.0,26.68,NE,55,9.0,19.0,36,0.00,,,0.01,,2013-01-16 21:22:00,
2013-01-16 14:33:00,47.0,22.0,26.69,NNW,340,10.0,16.0,37,0.00,,,0.01,,2013-01-16 21:33:00,
2013-01-16 14:43:00,47.0,22.0,26.69,NNW,340,10.0,16.0,37,0.00,,,0.01,,2013-01-16 21:43:00,
2013-01-16 14:53:00,47.0,23.0,26.70,NW,307,7.0,16.0,38,0.00,,,0.01,,2013-01-16 21:53:00,
2013-01-16 15:02:00,46.0,22.0,26.70,North,360,8.0,14.0,38,0.00,,,0.01,,2013-01-16 22:02:00,
2013-01-16 15:12:00,46.0,22.0,26.70,North,360,8.0,14.0,38,0.00,,,0.01,,2013-01-16 22:12:00,
2013-01-16 15:22:00,47.0,23.0,26.71,NNW,342,4.0,11.0,39,0.00,,,0.01,,2013-01-16 22:22:00,
2013-01-16 15:33:00,47.0,23.0,26.71,North,360,4.0,10.0,38,0.00,,,0.01,,2013-01-16 22:33:00,
2013-01-16 15:43:00,47.0,23.0,26.71,North,360,4.0,10.0,38,0.00,,,0.01,,2013-01-16 22:43:00,
2013-01-16 15:53:00,47.0,23.0,26.71,NW,312,6.0,10.0,38,0.00,,,0.01,,2013-01-16 22:53:00,
2013-01-16 16:02:00,47.0,23.0,26.71,NW,314,1.0,8.0,38,0.00,,,0.01,,2013-01-16 23:02:00,
2013-01-16 16:12:00,47.0,23.0,26.71,NW,314,1.0,8.0,38,0.00,,,0.01,,2013-01-16 23:12:00,
2013-01-16 16:23:00,47.0,22.0,26.72,NW,311,4.0,10.0,37,0.00,,,0.01,,2013-01-16 23:23:00,
2013-01-16 16:32:00,46.0,21.0,26.72,WNW,296,3.0,11.0,37,0.00,,,0.01,,2013-01-16 23:32:00,
2013-01-16 16:42:00,46.0,21.0,26.72,WNW,296,3.0,11.0,37,0.00,,,0.01,,2013-01-16 23:42:00,
2013-01-16 16:53:00,46.0,22.0,26.73,NW,323,4.0,11.0,38,0.00,,,0.01,,2013-01-16 23:53:00,
2013-01-16 17:02:00,46.0,22.0,26.74,NNW,333,1.0,7.0,39,0.00,,,0.01,,2013-01-17 00:02:00,
2013-01-16 17:12:00,46.0,22.0,26.74,NNW,333,1.0,7.0,39,0.00,,,0.01,,2013-01-17 00:12:00,
2013-01-16 17:22:00,45.0,22.0,26.75,NW,321,2.0,7.0,39,0.00,,,0.01,,2013-01-17 00:22:00,
2013-01-16 17:32:00,45.0,22.0,26.75,NW,322,1.0,5.0,39,0.00,,,0.01,,2013-01-17 00:32:00,
2013-01-16 17:42:00,45.0,22.0,26.75,NW,322,1.0,5.0,39,0.00,,,0.01,,2013-01-17 00:42:00,
2013-01-16 17:52:00,43.0,22.0,26.76,NW,322,1.0,5.0,42,0.00,,,0.01,,2013-01-17 00:52:00,
2013-01-16 18:02:00,42.0,22.0,26.76,NW,322,0.0,0.0,44,0.00,,,0.01,,2013-01-17 01:02:00,
2013-01-16 18:12:00,42.0,22.0,26.76,NW,322,0.0,0.0,44,0.00,,,0.01,,2013-01-17 01:12:00,
2013-01-16 18:22:00,42.0,22.0,26.77,NW,322,0.0,0.0,44,0.00,,,0.01,,2013-01-17 01:22:00,
2013-01-16 18:32:00,40.0,22.0,26.77,NW,322,0.0,2.0,48,0.00,,,0.01,,2013-01-17 01:32:00,
2013-01-16 18:42:00,40.0,22.0,26.77,NW,322,0.0,2.0,48,0.00,,,0.01,,2013-01-17 01:42:00,
2013-01-16 18:52:00,39.0,22.0,26.77,NW,322,0.0,0.0,50,0.00,,,0.01,,2013-01-17 01:52:00,
2013-01-16 19:02:00,39.0,22.0,26.78,NW,321,2.0,4.0,50,0.00,,,0.01,,2013-01-17 02:02:00,
2013-01-16 19:12:00,39.0,22.0,26.78,NW,321,2.0,4.0,50,0.00,,,0.01,,2013-01-17 02:12:00,
2013-01-16 19:22:00,41.0,22.0,26.78,WNW,290,1.0,6.0,46,0.00,,,0.01,,2013-01-17 02:22:00,
2013-01-16 19:32:00,43.0,22.0,26.78,NW,316,7.0,11.0,43,0.00,,,0.01,,2013-01-17 02:32:00,
2013-01-16 19:42:00,43.0,22.0,26.78,NW,316,7.0,11.0,43,0.00,,,0.01,,2013-01-17 02:42:00,
2013-01-16 19:52:00,43.0,22.0,26.78,NW,316,7.0,11.0,43,0.00,,,0.01,,2013-01-17 02:52:00,
2013-01-16 20:02:00,43.0,22.0,26.78,NNW,329,3.0,11.0,43,0.00,,,0.01,,2013-01-17 03:02:00,
2013-01-16 20:12:00,43.0,22.0,26.78,NNW,329,3.0,11.0,43,0.00,,,0.01,,2013-01-17 03:12:00,
2013-01-16 20:22:00,42.0,22.0,26.79,West,274,3.0,10.0,44,0.00,,,0.01,,2013-01-17 03:22:00,
2013-01-16 20:32:00,42.0,21.0,26.79,WNW,286,7.0,13.0,43,0.00,,,0.01,,2013-01-17 03:32:00,
2013-01-16 20:42:00,42.0,21.0,26.79,WNW,286,7.0,13.0,43,0.00,,,0.01,,2013-01-17 03:42:00,
2013-01-16 20:52:00,42.0,22.0,26.79,NNW,329,6.0,10.0,44,0.00,,,0.01,,2013-01-17 03:52:00,
2013-01-16 21:02:00,42.0,21.0,26.79,NW,315,6.0,15.0,43,0.00,,,0.01,,2013-01-17 04:02:00,
2013-01-16 21:12:00,42.0,21.0,26.80,NW,309,9.0,13.0,43,0.00,,,0.01,,2013-01-17 04:12:00,
2013-01-16 21:22:00,42.0,21.0,26.80,NW,309,9.0,13.0,43,0.00,,,0.01,,2013-01-17 04:22:00,
2013-01-16 21:32:00,42.0,22.0,26.80,WNW,302,7.0,13.0,44,0.00,,,0.00,,2013-01-17 04:32:00,
2013-01-16 21:42:00,42.0,22.0,26.80,WNW,302,7.0,13.0,44,0.00,,,0.00,,2013-01-17 04:42:00,
2013-01-16 21:52:00,41.0,21.0,26.80,WNW,287,6.0,10.0,44,0.00,,,0.00,,2013-01-17 04:52:00,
2013-01-16 22:04:00,40.0,21.0,26.81,West,280,4.0,8.0,46,0.00,,,0.00,,2013-01-17 05:04:00,
2013-01-16 22:12:00,40.0,21.0,26.81,West,280,4.0,8.0,46,0.00,,,0.00,,2013-01-17 05:12:00,
2013-01-16 22:22:00,40.0,21.0,26.81,WSW,240,6.0,12.0,46,0.00,,,0.00,,2013-01-17 05:22:00,
2013-01-16 22:33:00,39.0,20.0,26.81,West,263,6.0,15.0,47,0.00,,,0.00,,2013-01-17 05:33:00,
2013-01-16 22:42:00,39.0,20.0,26.81,West,263,6.0,15.0,47,0.00,,,0.00,,2013-01-17 05:42:00,
2013-01-16 22:53:00,39.0,20.0,26.82,WNW,291,5.0,12.0,47,0.00,,,0.00,,2013-01-17 05:53:00,
2013-01-16 23:02:00,39.0,20.0,26.83,West,271,6.0,10.0,47,0.00,,,0.00,,2013-01-17 06:02:00,
2013-01-16 23:12:00,39.0,20.0,26.83,West,271,6.0,10.0,47,0.00,,,0.00,,2013-01-17 06:12:00,
2013-01-16 23:22:00,39.0,21.0,26.83,WNW,283,6.0,8.0,48,0.00,,,0.00,,2013-01-17 06:22:00,
2013-01-16 23:32:00,39.0,21.0,26.83,West,271,6.0,9.0,48,0.00,,,0.00,,2013-01-17 06:32:00,
2013-01-16 23:42:00,39.0,21.0,26.83,West,271,6.0,9.0,48,0.00,,,0.00,,2013-01-17 06:42:00,
2013-01-16 23:52:00,38.0,21.0,26.83,West,271,5.0,9.0,49,0.00,,,0.00,,2013-01-17 06:52:00,